sensor_id;sensor_type;location;lat;lon;timestamp;P1;durP1;ratioP1;P2;durP2;ratioP2
82473;SDS011;72149;53.232;6.556;2023-08-17T00:01:13;2.85;;;1.23;;
82473;SDS011;72149;53.232;6.556;2023-08-17T00:03:41;3.00;;;1.50;;
82473;SDS011;72149;53.232;6.556;2023-08-17T00:06:09;2.80;;;1.60;;
82473;SDS011;72149;53.232;6.556;2023-08-17T00:08:37;1.73;;;1.13;;
82473;SDS011;72149;53.232;6.556;2023-08-17T00:11:04;3.05;;;1.35;;
82473;SDS011;72149;53.232;6.556;2023-08-17T00:13:33;2.78;;;1.60;;
82473;SDS011;72149;53.232;6.556;2023-08-17T00:16:02;5.05;;;1.98;;
82473;SDS011;72149;53.232;6.556;2023-08-17T00:18:30;2.92;;;1.42;;
82473;SDS011;72149;53.232;6.556;2023-08-17T00:20:58;2.45;;;1.42;;
82473;SDS011;72149;53.232;6.556;2023-08-17T00:23:26;5.20;;;1.67;;
82473;SDS011;72149;53.232;6.556;2023-08-17T00:25:54;2.80;;;1.08;;
82473;SDS011;72149;53.232;6.556;2023-08-17T00:28:22;3.15;;;1.58;;
82473;SDS011;72149;53.232;6.556;2023-08-17T00:30:51;2.30;;;1.45;;
82473;SDS011;72149;53.232;6.556;2023-08-17T00:33:19;4.20;;;1.67;;
82473;SDS011;72149;53.232;6.556;2023-08-17T00:35:47;2.13;;;1.08;;
82473;SDS011;72149;53.232;6.556;2023-08-17T00:38:15;3.75;;;1.63;;
82473;SDS011;72149;53.232;6.556;2023-08-17T00:40:43;1.80;;;1.20;;
82473;SDS011;72149;53.232;6.556;2023-08-17T00:43:11;3.65;;;1.70;;
82473;SDS011;72149;53.232;6.556;2023-08-17T00:45:39;2.53;;;1.20;;
82473;SDS011;72149;53.232;6.556;2023-08-17T00:48:11;3.15;;;1.20;;
82473;SDS011;72149;53.232;6.556;2023-08-17T00:50:39;4.07;;;1.30;;
82473;SDS011;72149;53.232;6.556;2023-08-17T00:53:08;1.95;;;1.10;;
82473;SDS011;72149;53.232;6.556;2023-08-17T00:55:40;1.40;;;1.10;;
82473;SDS011;72149;53.232;6.556;2023-08-17T00:58:07;3.78;;;1.20;;
82473;SDS011;72149;53.232;6.556;2023-08-17T01:00:36;3.75;;;1.50;;
82473;SDS011;72149;53.232;6.556;2023-08-17T01:03:04;2.92;;;1.30;;
82473;SDS011;72149;53.232;6.556;2023-08-17T01:05:33;3.30;;;1.33;;
82473;SDS011;72149;53.232;6.556;2023-08-17T01:08:01;3.28;;;1.40;;
82473;SDS011;72149;53.232;6.556;2023-08-17T01:10:30;2.47;;;1.40;;
82473;SDS011;72149;53.232;6.556;2023-08-17T01:13:05;2.45;;;1.10;;
82473;SDS011;72149;53.232;6.556;2023-08-17T01:15:39;3.75;;;1.70;;
82473;SDS011;72149;53.232;6.556;2023-08-17T01:18:10;3.38;;;1.77;;
82473;SDS011;72149;53.232;6.556;2023-08-17T01:20:46;3.50;;;1.35;;
82473;SDS011;72149;53.232;6.556;2023-08-17T01:23:15;4.45;;;1.60;;
82473;SDS011;72149;53.232;6.556;2023-08-17T01:25:43;1.63;;;1.27;;
82473;SDS011;72149;53.232;6.556;2023-08-17T01:28:11;3.33;;;1.27;;
82473;SDS011;72149;53.232;6.556;2023-08-17T01:30:39;3.35;;;1.30;;
82473;SDS011;72149;53.232;6.556;2023-08-17T01:33:13;3.03;;;1.30;;
82473;SDS011;72149;53.232;6.556;2023-08-17T01:35:45;1.90;;;1.20;;
82473;SDS011;72149;53.232;6.556;2023-08-17T01:38:18;2.90;;;1.25;;
82473;SDS011;72149;53.232;6.556;2023-08-17T01:43:19;3.83;;;1.05;;
82473;SDS011;72149;53.232;6.556;2023-08-17T01:45:48;2.85;;;1.23;;
82473;SDS011;72149;53.232;6.556;2023-08-17T01:48:16;2.30;;;1.30;;
82473;SDS011;72149;53.232;6.556;2023-08-17T01:50:44;2.17;;;1.40;;
82473;SDS011;72149;53.232;6.556;2023-08-17T01:53:11;2.08;;;1.20;;
82473;SDS011;72149;53.232;6.556;2023-08-17T01:55:42;3.28;;;1.42;;
82473;SDS011;72149;53.232;6.556;2023-08-17T01:58:10;2.75;;;1.48;;
82473;SDS011;72149;53.232;6.556;2023-08-17T02:00:37;2.65;;;1.20;;
82473;SDS011;72149;53.232;6.556;2023-08-17T02:03:05;2.10;;;1.40;;
82473;SDS011;72149;53.232;6.556;2023-08-17T02:05:33;3.97;;;1.45;;
82473;SDS011;72149;53.232;6.556;2023-08-17T02:08:01;3.95;;;1.52;;
82473;SDS011;72149;53.232;6.556;2023-08-17T02:10:30;7.15;;;1.20;;
82473;SDS011;72149;53.232;6.556;2023-08-17T02:12:59;2.38;;;1.40;;
82473;SDS011;72149;53.232;6.556;2023-08-17T02:15:43;5.10;;;1.45;;
82473;SDS011;72149;53.232;6.556;2023-08-17T02:18:11;3.65;;;1.30;;
82473;SDS011;72149;53.232;6.556;2023-08-17T02:20:39;4.53;;;1.38;;
82473;SDS011;72149;53.232;6.556;2023-08-17T02:23:07;2.30;;;1.25;;
82473;SDS011;72149;53.232;6.556;2023-08-17T02:25:37;3.67;;;1.35;;
82473;SDS011;72149;53.232;6.556;2023-08-17T02:28:06;5.25;;;1.20;;
82473;SDS011;72149;53.232;6.556;2023-08-17T02:30:34;3.03;;;1.10;;
82473;SDS011;72149;53.232;6.556;2023-08-17T02:33:02;2.88;;;1.17;;
82473;SDS011;72149;53.232;6.556;2023-08-17T02:35:31;2.85;;;1.15;;
82473;SDS011;72149;53.232;6.556;2023-08-17T02:37:58;2.15;;;1.30;;
82473;SDS011;72149;53.232;6.556;2023-08-17T02:40:26;3.47;;;1.60;;
82473;SDS011;72149;53.232;6.556;2023-08-17T02:42:54;4.13;;;1.50;;
82473;SDS011;72149;53.232;6.556;2023-08-17T02:45:23;2.00;;;1.27;;
82473;SDS011;72149;53.232;6.556;2023-08-17T02:47:51;4.47;;;1.35;;
82473;SDS011;72149;53.232;6.556;2023-08-17T02:50:19;3.85;;;1.33;;
82473;SDS011;72149;53.232;6.556;2023-08-17T02:52:47;1.98;;;1.58;;
82473;SDS011;72149;53.232;6.556;2023-08-17T02:55:15;2.72;;;1.25;;
82473;SDS011;72149;53.232;6.556;2023-08-17T02:57:42;2.45;;;1.17;;
82473;SDS011;72149;53.232;6.556;2023-08-17T03:00:11;2.55;;;1.42;;
82473;SDS011;72149;53.232;6.556;2023-08-17T03:02:41;3.20;;;1.20;;
82473;SDS011;72149;53.232;6.556;2023-08-17T03:05:09;1.48;;;0.65;;
82473;SDS011;72149;53.232;6.556;2023-08-17T03:07:38;4.07;;;1.50;;
82473;SDS011;72149;53.232;6.556;2023-08-17T03:10:07;4.60;;;1.10;;
82473;SDS011;72149;53.232;6.556;2023-08-17T03:12:35;2.58;;;1.27;;
82473;SDS011;72149;53.232;6.556;2023-08-17T03:15:04;4.03;;;1.30;;
82473;SDS011;72149;53.232;6.556;2023-08-17T03:17:34;5.45;;;1.50;;
82473;SDS011;72149;53.232;6.556;2023-08-17T03:20:04;6.70;;;1.30;;
82473;SDS011;72149;53.232;6.556;2023-08-17T03:22:33;4.53;;;1.33;;
82473;SDS011;72149;53.232;6.556;2023-08-17T03:25:01;3.55;;;1.42;;
82473;SDS011;72149;53.232;6.556;2023-08-17T03:27:30;2.10;;;1.10;;
82473;SDS011;72149;53.232;6.556;2023-08-17T03:29:58;4.78;;;1.50;;
82473;SDS011;72149;53.232;6.556;2023-08-17T03:32:26;2.72;;;1.20;;
82473;SDS011;72149;53.232;6.556;2023-08-17T03:34:54;3.42;;;1.15;;
82473;SDS011;72149;53.232;6.556;2023-08-17T03:37:23;2.65;;;0.95;;
82473;SDS011;72149;53.232;6.556;2023-08-17T03:39:52;2.33;;;1.05;;
82473;SDS011;72149;53.232;6.556;2023-08-17T03:42:20;3.20;;;1.10;;
82473;SDS011;72149;53.232;6.556;2023-08-17T03:44:48;1.27;;;1.10;;
82473;SDS011;72149;53.232;6.556;2023-08-17T03:47:17;3.35;;;1.15;;
82473;SDS011;72149;53.232;6.556;2023-08-17T03:49:44;5.60;;;0.95;;
82473;SDS011;72149;53.232;6.556;2023-08-17T03:52:12;2.42;;;1.00;;
82473;SDS011;72149;53.232;6.556;2023-08-17T03:54:42;1.35;;;0.82;;
82473;SDS011;72149;53.232;6.556;2023-08-17T03:57:10;2.15;;;0.93;;
82473;SDS011;72149;53.232;6.556;2023-08-17T03:59:38;3.45;;;1.10;;
82473;SDS011;72149;53.232;6.556;2023-08-17T04:02:06;4.03;;;0.90;;
82473;SDS011;72149;53.232;6.556;2023-08-17T04:04:34;3.65;;;0.93;;
82473;SDS011;72149;53.232;6.556;2023-08-17T04:07:02;2.75;;;1.10;;
82473;SDS011;72149;53.232;6.556;2023-08-17T04:09:29;2.50;;;1.00;;
82473;SDS011;72149;53.232;6.556;2023-08-17T04:12:01;2.30;;;1.10;;
82473;SDS011;72149;53.232;6.556;2023-08-17T04:14:33;4.28;;;1.02;;
82473;SDS011;72149;53.232;6.556;2023-08-17T04:17:01;1.70;;;1.00;;
82473;SDS011;72149;53.232;6.556;2023-08-17T04:19:30;3.10;;;1.08;;
82473;SDS011;72149;53.232;6.556;2023-08-17T04:21:58;5.90;;;1.50;;
82473;SDS011;72149;53.232;6.556;2023-08-17T04:24:26;3.92;;;1.15;;
82473;SDS011;72149;53.232;6.556;2023-08-17T04:26:53;3.33;;;1.00;;
82473;SDS011;72149;53.232;6.556;2023-08-17T04:29:23;2.97;;;1.38;;
82473;SDS011;72149;53.232;6.556;2023-08-17T04:31:50;2.30;;;1.10;;
82473;SDS011;72149;53.232;6.556;2023-08-17T04:34:18;1.77;;;1.40;;
82473;SDS011;72149;53.232;6.556;2023-08-17T04:36:46;2.90;;;1.42;;
82473;SDS011;72149;53.232;6.556;2023-08-17T04:39:15;2.03;;;1.10;;
82473;SDS011;72149;53.232;6.556;2023-08-17T04:41:43;3.83;;;1.27;;
82473;SDS011;72149;53.232;6.556;2023-08-17T04:44:15;2.03;;;1.30;;
82473;SDS011;72149;53.232;6.556;2023-08-17T04:46:44;2.55;;;1.20;;
82473;SDS011;72149;53.232;6.556;2023-08-17T04:49:13;3.28;;;1.20;;
82473;SDS011;72149;53.232;6.556;2023-08-17T04:51:41;3.30;;;1.20;;
82473;SDS011;72149;53.232;6.556;2023-08-17T04:54:09;2.72;;;1.15;;
82473;SDS011;72149;53.232;6.556;2023-08-17T04:56:37;4.65;;;1.52;;
82473;SDS011;72149;53.232;6.556;2023-08-17T04:59:05;4.93;;;1.20;;
82473;SDS011;72149;53.232;6.556;2023-08-17T05:01:33;2.25;;;1.20;;
82473;SDS011;72149;53.232;6.556;2023-08-17T05:04:03;2.75;;;1.25;;
82473;SDS011;72149;53.232;6.556;2023-08-17T05:06:31;2.78;;;1.38;;
82473;SDS011;72149;53.232;6.556;2023-08-17T05:09:00;3.90;;;1.50;;
82473;SDS011;72149;53.232;6.556;2023-08-17T05:11:30;4.10;;;1.20;;
82473;SDS011;72149;53.232;6.556;2023-08-17T05:13:57;2.60;;;1.08;;
82473;SDS011;72149;53.232;6.556;2023-08-17T05:16:25;2.08;;;1.00;;
82473;SDS011;72149;53.232;6.556;2023-08-17T05:18:55;2.40;;;1.20;;
82473;SDS011;72149;53.232;6.556;2023-08-17T05:21:27;3.33;;;1.10;;
82473;SDS011;72149;53.232;6.556;2023-08-17T05:23:55;3.65;;;1.58;;
82473;SDS011;72149;53.232;6.556;2023-08-17T05:26:23;4.50;;;1.23;;
82473;SDS011;72149;53.232;6.556;2023-08-17T05:28:50;6.35;;;1.48;;
82473;SDS011;72149;53.232;6.556;2023-08-17T05:31:18;3.83;;;1.40;;
82473;SDS011;72149;53.232;6.556;2023-08-17T05:33:48;5.57;;;1.48;;
82473;SDS011;72149;53.232;6.556;2023-08-17T05:36:16;1.45;;;0.93;;
82473;SDS011;72149;53.232;6.556;2023-08-17T05:38:47;1.80;;;1.00;;
82473;SDS011;72149;53.232;6.556;2023-08-17T05:41:15;2.47;;;1.10;;
82473;SDS011;72149;53.232;6.556;2023-08-17T05:43:43;2.65;;;1.20;;
82473;SDS011;72149;53.232;6.556;2023-08-17T05:46:11;3.53;;;1.10;;
82473;SDS011;72149;53.232;6.556;2023-08-17T05:48:39;5.32;;;1.50;;
82473;SDS011;72149;53.232;6.556;2023-08-17T05:51:08;1.85;;;1.10;;
82473;SDS011;72149;53.232;6.556;2023-08-17T05:53:36;4.30;;;1.13;;
82473;SDS011;72149;53.232;6.556;2023-08-17T05:56:05;1.83;;;1.00;;
82473;SDS011;72149;53.232;6.556;2023-08-17T05:58:33;4.00;;;1.17;;
82473;SDS011;72149;53.232;6.556;2023-08-17T06:01:04;3.58;;;1.60;;
82473;SDS011;72149;53.232;6.556;2023-08-17T06:03:33;2.58;;;1.02;;
82473;SDS011;72149;53.232;6.556;2023-08-17T06:06:02;5.57;;;1.52;;
82473;SDS011;72149;53.232;6.556;2023-08-17T06:08:30;2.60;;;1.20;;
82473;SDS011;72149;53.232;6.556;2023-08-17T06:10:58;3.55;;;1.17;;
82473;SDS011;72149;53.232;6.556;2023-08-17T06:13:27;2.28;;;1.30;;
82473;SDS011;72149;53.232;6.556;2023-08-17T06:15:55;2.90;;;1.20;;
82473;SDS011;72149;53.232;6.556;2023-08-17T06:18:24;3.60;;;1.00;;
82473;SDS011;72149;53.232;6.556;2023-08-17T06:20:52;3.53;;;1.42;;
82473;SDS011;72149;53.232;6.556;2023-08-17T06:23:20;3.85;;;1.20;;
82473;SDS011;72149;53.232;6.556;2023-08-17T06:25:48;4.05;;;1.40;;
82473;SDS011;72149;53.232;6.556;2023-08-17T06:28:16;5.60;;;1.70;;
82473;SDS011;72149;53.232;6.556;2023-08-17T06:30:45;3.95;;;1.30;;
82473;SDS011;72149;53.232;6.556;2023-08-17T06:33:13;3.75;;;0.90;;
82473;SDS011;72149;53.232;6.556;2023-08-17T06:35:41;3.10;;;1.10;;
82473;SDS011;72149;53.232;6.556;2023-08-17T06:38:09;3.47;;;1.38;;
82473;SDS011;72149;53.232;6.556;2023-08-17T06:40:37;5.75;;;1.85;;
82473;SDS011;72149;53.232;6.556;2023-08-17T06:43:05;4.85;;;1.63;;
82473;SDS011;72149;53.232;6.556;2023-08-17T06:45:33;2.30;;;1.10;;
82473;SDS011;72149;53.232;6.556;2023-08-17T06:48:04;5.05;;;1.30;;
82473;SDS011;72149;53.232;6.556;2023-08-17T06:50:32;5.57;;;1.63;;
82473;SDS011;72149;53.232;6.556;2023-08-17T06:53:01;3.13;;;1.20;;
82473;SDS011;72149;53.232;6.556;2023-08-17T06:55:29;6.80;;;1.30;;
82473;SDS011;72149;53.232;6.556;2023-08-17T06:57:57;5.55;;;1.58;;
82473;SDS011;72149;53.232;6.556;2023-08-17T07:00:25;2.08;;;1.30;;
82473;SDS011;72149;53.232;6.556;2023-08-17T07:02:53;5.30;;;1.25;;
82473;SDS011;72149;53.232;6.556;2023-08-17T07:05:27;4.32;;;1.10;;
82473;SDS011;72149;53.232;6.556;2023-08-17T07:07:55;4.93;;;1.42;;
82473;SDS011;72149;53.232;6.556;2023-08-17T07:10:24;11.95;;;1.40;;
82473;SDS011;72149;53.232;6.556;2023-08-17T07:12:51;2.45;;;1.00;;
82473;SDS011;72149;53.232;6.556;2023-08-17T07:15:19;2.15;;;0.88;;
82473;SDS011;72149;53.232;6.556;2023-08-17T07:17:47;5.78;;;2.17;;
82473;SDS011;72149;53.232;6.556;2023-08-17T07:20:15;12.40;;;8.65;;
82473;SDS011;72149;53.232;6.556;2023-08-17T07:22:44;26.60;;;18.65;;
82473;SDS011;72149;53.232;6.556;2023-08-17T07:25:13;18.50;;;13.90;;
82473;SDS011;72149;53.232;6.556;2023-08-17T07:27:41;24.77;;;17.27;;
82473;SDS011;72149;53.232;6.556;2023-08-17T07:30:09;25.30;;;18.00;;
82473;SDS011;72149;53.232;6.556;2023-08-17T07:32:38;31.95;;;21.25;;
82473;SDS011;72149;53.232;6.556;2023-08-17T07:35:06;30.95;;;20.95;;
82473;SDS011;72149;53.232;6.556;2023-08-17T07:37:35;24.65;;;16.30;;
82473;SDS011;72149;53.232;6.556;2023-08-17T07:40:04;27.35;;;17.90;;
82473;SDS011;72149;53.232;6.556;2023-08-17T07:42:34;28.30;;;18.98;;
82473;SDS011;72149;53.232;6.556;2023-08-17T07:45:02;19.65;;;12.40;;
82473;SDS011;72149;53.232;6.556;2023-08-17T07:47:33;17.98;;;11.07;;
82473;SDS011;72149;53.232;6.556;2023-08-17T07:50:02;16.30;;;9.48;;
82473;SDS011;72149;53.232;6.556;2023-08-17T07:52:31;15.60;;;8.02;;
82473;SDS011;72149;53.232;6.556;2023-08-17T07:54:58;10.95;;;5.82;;
82473;SDS011;72149;53.232;6.556;2023-08-17T07:57:28;10.43;;;5.43;;
82473;SDS011;72149;53.232;6.556;2023-08-17T07:59:55;5.88;;;3.67;;
82473;SDS011;72149;53.232;6.556;2023-08-17T08:02:23;7.55;;;3.38;;
82473;SDS011;72149;53.232;6.556;2023-08-17T08:04:50;7.47;;;2.90;;
82473;SDS011;72149;53.232;6.556;2023-08-17T08:07:18;3.17;;;2.38;;
82473;SDS011;72149;53.232;6.556;2023-08-17T08:09:46;20.25;;;11.30;;
82473;SDS011;72149;53.232;6.556;2023-08-17T08:12:14;29.95;;;18.80;;
82473;SDS011;72149;53.232;6.556;2023-08-17T08:14:43;26.75;;;16.85;;
82473;SDS011;72149;53.232;6.556;2023-08-17T08:17:11;26.02;;;15.00;;
82473;SDS011;72149;53.232;6.556;2023-08-17T08:19:39;19.02;;;13.10;;
82473;SDS011;72149;53.232;6.556;2023-08-17T08:22:08;32.85;;;21.15;;
82473;SDS011;72149;53.232;6.556;2023-08-17T08:24:36;49.47;;;34.50;;
82473;SDS011;72149;53.232;6.556;2023-08-17T08:27:08;74.57;;;50.63;;
82473;SDS011;72149;53.232;6.556;2023-08-17T08:29:36;53.83;;;38.65;;
82473;SDS011;72149;53.232;6.556;2023-08-17T08:32:05;53.75;;;37.60;;
82473;SDS011;72149;53.232;6.556;2023-08-17T08:34:33;50.70;;;36.20;;
82473;SDS011;72149;53.232;6.556;2023-08-17T08:37:01;34.33;;;23.45;;
82473;SDS011;72149;53.232;6.556;2023-08-17T08:39:29;25.73;;;18.73;;
82473;SDS011;72149;53.232;6.556;2023-08-17T08:41:57;20.45;;;13.77;;
82473;SDS011;72149;53.232;6.556;2023-08-17T08:44:25;19.50;;;13.50;;
82473;SDS011;72149;53.232;6.556;2023-08-17T08:46:54;13.30;;;8.02;;
82473;SDS011;72149;53.232;6.556;2023-08-17T08:49:25;10.18;;;7.05;;
82473;SDS011;72149;53.232;6.556;2023-08-17T08:51:54;8.45;;;5.88;;
82473;SDS011;72149;53.232;6.556;2023-08-17T08:54:27;7.90;;;4.03;;
82473;SDS011;72149;53.232;6.556;2023-08-17T08:56:58;6.22;;;3.17;;
82473;SDS011;72149;53.232;6.556;2023-08-17T08:59:31;4.82;;;2.70;;
82473;SDS011;72149;53.232;6.556;2023-08-17T09:02:02;5.63;;;1.30;;
82473;SDS011;72149;53.232;6.556;2023-08-17T09:04:32;2.17;;;1.48;;
82473;SDS011;72149;53.232;6.556;2023-08-17T09:07:00;5.70;;;1.88;;
82473;SDS011;72149;53.232;6.556;2023-08-17T09:09:30;5.00;;;2.45;;
82473;SDS011;72149;53.232;6.556;2023-08-17T09:11:57;21.33;;;13.13;;
82473;SDS011;72149;53.232;6.556;2023-08-17T09:14:25;38.30;;;26.00;;
82473;SDS011;72149;53.232;6.556;2023-08-17T09:16:53;68.95;;;44.72;;
82473;SDS011;72149;53.232;6.556;2023-08-17T09:19:21;39.55;;;25.80;;
82473;SDS011;72149;53.232;6.556;2023-08-17T09:21:50;27.52;;;16.17;;
82473;SDS011;72149;53.232;6.556;2023-08-17T09:24:19;36.22;;;22.77;;
82473;SDS011;72149;53.232;6.556;2023-08-17T09:26:47;22.20;;;15.88;;
82473;SDS011;72149;53.232;6.556;2023-08-17T09:29:17;27.48;;;17.77;;
82473;SDS011;72149;53.232;6.556;2023-08-17T09:31:46;56.50;;;35.20;;
82473;SDS011;72149;53.232;6.556;2023-08-17T09:34:14;54.08;;;33.38;;
82473;SDS011;72149;53.232;6.556;2023-08-17T09:36:45;45.75;;;27.17;;
82473;SDS011;72149;53.232;6.556;2023-08-17T09:39:16;25.13;;;15.15;;
82473;SDS011;72149;53.232;6.556;2023-08-17T09:41:44;33.28;;;23.20;;
82473;SDS011;72149;53.232;6.556;2023-08-17T09:44:13;57.10;;;37.67;;
82473;SDS011;72149;53.232;6.556;2023-08-17T09:46:42;62.40;;;42.50;;
82473;SDS011;72149;53.232;6.556;2023-08-17T09:49:11;22.30;;;14.15;;
82473;SDS011;72149;53.232;6.556;2023-08-17T09:51:41;41.80;;;26.85;;
82473;SDS011;72149;53.232;6.556;2023-08-17T09:54:16;23.77;;;16.20;;
82473;SDS011;72149;53.232;6.556;2023-08-17T09:56:48;45.50;;;30.35;;
82473;SDS011;72149;53.232;6.556;2023-08-17T09:59:18;41.10;;;26.20;;
82473;SDS011;72149;53.232;6.556;2023-08-17T10:01:48;55.70;;;35.67;;
82473;SDS011;72149;53.232;6.556;2023-08-17T10:04:22;90.43;;;59.50;;
82473;SDS011;72149;53.232;6.556;2023-08-17T10:06:52;79.13;;;53.50;;
82473;SDS011;72149;53.232;6.556;2023-08-17T10:09:28;43.90;;;30.88;;
82473;SDS011;72149;53.232;6.556;2023-08-17T10:12:04;65.40;;;46.30;;
82473;SDS011;72149;53.232;6.556;2023-08-17T10:14:39;48.08;;;31.63;;
82473;SDS011;72149;53.232;6.556;2023-08-17T10:17:14;32.65;;;22.08;;
82473;SDS011;72149;53.232;6.556;2023-08-17T10:19:50;37.17;;;25.02;;
82473;SDS011;72149;53.232;6.556;2023-08-17T10:22:22;23.15;;;14.95;;
82473;SDS011;72149;53.232;6.556;2023-08-17T10:24:57;22.20;;;15.85;;
82473;SDS011;72149;53.232;6.556;2023-08-17T10:27:25;34.33;;;21.17;;
82473;SDS011;72149;53.232;6.556;2023-08-17T10:29:54;34.22;;;23.00;;
82473;SDS011;72149;53.232;6.556;2023-08-17T10:32:23;37.13;;;24.25;;
82473;SDS011;72149;53.232;6.556;2023-08-17T10:34:53;65.65;;;44.28;;
82473;SDS011;72149;53.232;6.556;2023-08-17T17:59:10;39.38;;;25.75;;
82473;SDS011;72149;53.232;6.556;2023-08-17T18:01:39;38.88;;;26.90;;
82473;SDS011;72149;53.232;6.556;2023-08-17T18:04:07;18.27;;;11.55;;
82473;SDS011;72149;53.232;6.556;2023-08-17T18:06:36;29.88;;;18.70;;
82473;SDS011;72149;53.232;6.556;2023-08-17T18:09:04;25.30;;;14.30;;
82473;SDS011;72149;53.232;6.556;2023-08-17T18:11:32;20.92;;;14.60;;
82473;SDS011;72149;53.232;6.556;2023-08-17T18:14:00;16.63;;;9.63;;
82473;SDS011;72149;53.232;6.556;2023-08-17T18:16:30;11.73;;;7.30;;
82473;SDS011;72149;53.232;6.556;2023-08-17T18:18:57;17.65;;;9.88;;
82473;SDS011;72149;53.232;6.556;2023-08-17T18:21:25;15.60;;;8.60;;
82473;SDS011;72149;53.232;6.556;2023-08-17T18:23:56;13.98;;;7.80;;
82473;SDS011;72149;53.232;6.556;2023-08-17T18:26:24;10.40;;;7.13;;
82473;SDS011;72149;53.232;6.556;2023-08-17T18:28:53;29.45;;;18.92;;
82473;SDS011;72149;53.232;6.556;2023-08-17T18:31:21;78.40;;;50.55;;
82473;SDS011;72149;53.232;6.556;2023-08-17T18:33:51;64.60;;;40.38;;
82473;SDS011;72149;53.232;6.556;2023-08-17T18:36:19;31.23;;;21.08;;
82473;SDS011;72149;53.232;6.556;2023-08-17T18:38:46;11.55;;;8.95;;
82473;SDS011;72149;53.232;6.556;2023-08-17T18:41:15;28.50;;;20.65;;
82473;SDS011;72149;53.232;6.556;2023-08-17T18:43:43;23.13;;;15.70;;
82473;SDS011;72149;53.232;6.556;2023-08-17T18:46:10;13.27;;;9.48;;
82473;SDS011;72149;53.232;6.556;2023-08-17T18:48:38;11.65;;;9.02;;
82473;SDS011;72149;53.232;6.556;2023-08-17T18:51:08;29.60;;;18.98;;
82473;SDS011;72149;53.232;6.556;2023-08-17T18:53:35;31.98;;;22.25;;
82473;SDS011;72149;53.232;6.556;2023-08-17T18:56:03;40.35;;;27.20;;
82473;SDS011;72149;53.232;6.556;2023-08-17T18:58:31;28.55;;;18.88;;
82473;SDS011;72149;53.232;6.556;2023-08-17T19:00:59;27.17;;;19.02;;
82473;SDS011;72149;53.232;6.556;2023-08-17T19:03:27;28.80;;;19.92;;
82473;SDS011;72149;53.232;6.556;2023-08-17T19:05:56;22.65;;;15.70;;
82473;SDS011;72149;53.232;6.556;2023-08-17T19:08:26;18.27;;;12.38;;
82473;SDS011;72149;53.232;6.556;2023-08-17T19:10:54;5.50;;;4.45;;
82473;SDS011;72149;53.232;6.556;2023-08-17T19:13:22;12.85;;;9.35;;
82473;SDS011;72149;53.232;6.556;2023-08-17T19:15:50;10.98;;;7.22;;
82473;SDS011;72149;53.232;6.556;2023-08-17T19:18:18;12.27;;;7.32;;
82473;SDS011;72149;53.232;6.556;2023-08-17T19:20:46;9.70;;;5.53;;
82473;SDS011;72149;53.232;6.556;2023-08-17T19:23:14;13.05;;;9.23;;
82473;SDS011;72149;53.232;6.556;2023-08-17T19:25:43;99.45;;;58.70;;
82473;SDS011;72149;53.232;6.556;2023-08-17T19:28:12;84.22;;;51.42;;
82473;SDS011;72149;53.232;6.556;2023-08-17T19:30:40;146.65;;;91.13;;
82473;SDS011;72149;53.232;6.556;2023-08-17T19:33:07;110.25;;;66.85;;
82473;SDS011;72149;53.232;6.556;2023-08-17T19:35:35;131.95;;;78.25;;
82473;SDS011;72149;53.232;6.556;2023-08-17T19:38:03;39.05;;;24.40;;
82473;SDS011;72149;53.232;6.556;2023-08-17T19:40:31;79.95;;;49.38;;
82473;SDS011;72149;53.232;6.556;2023-08-17T19:43:00;43.33;;;26.13;;
82473;SDS011;72149;53.232;6.556;2023-08-17T19:45:29;31.42;;;19.67;;
82473;SDS011;72149;53.232;6.556;2023-08-17T19:47:57;13.20;;;8.55;;
82473;SDS011;72149;53.232;6.556;2023-08-17T19:50:25;27.05;;;17.45;;
82473;SDS011;72149;53.232;6.556;2023-08-17T19:52:53;19.55;;;12.10;;
82473;SDS011;72149;53.232;6.556;2023-08-17T19:55:20;23.45;;;14.90;;
82473;SDS011;72149;53.232;6.556;2023-08-17T19:57:48;16.33;;;10.95;;
82473;SDS011;72149;53.232;6.556;2023-08-17T20:00:18;12.23;;;8.63;;
82473;SDS011;72149;53.232;6.556;2023-08-17T20:02:48;13.02;;;8.70;;
82473;SDS011;72149;53.232;6.556;2023-08-17T20:05:15;38.58;;;25.48;;
82473;SDS011;72149;53.232;6.556;2023-08-17T20:07:43;138.48;;;88.07;;
82473;SDS011;72149;53.232;6.556;2023-08-17T20:10:11;182.35;;;119.38;;
82473;SDS011;72149;53.232;6.556;2023-08-17T20:12:39;143.98;;;92.97;;
82473;SDS011;72149;53.232;6.556;2023-08-17T20:15:08;125.45;;;80.05;;
82473;SDS011;72149;53.232;6.556;2023-08-17T20:17:37;55.40;;;34.55;;
82473;SDS011;72149;53.232;6.556;2023-08-17T20:20:06;77.13;;;51.35;;
82473;SDS011;72149;53.232;6.556;2023-08-17T20:22:36;46.28;;;30.20;;
82473;SDS011;72149;53.232;6.556;2023-08-17T20:25:04;43.55;;;28.38;;
82473;SDS011;72149;53.232;6.556;2023-08-17T20:27:33;35.30;;;25.00;;
82473;SDS011;72149;53.232;6.556;2023-08-17T20:30:01;100.70;;;67.82;;
82473;SDS011;72149;53.232;6.556;2023-08-17T20:32:29;91.22;;;59.47;;
82473;SDS011;72149;53.232;6.556;2023-08-17T20:34:58;148.00;;;97.80;;
82473;SDS011;72149;53.232;6.556;2023-08-17T20:37:26;132.27;;;86.07;;
82473;SDS011;72149;53.232;6.556;2023-08-17T20:39:54;104.78;;;70.47;;
82473;SDS011;72149;53.232;6.556;2023-08-17T20:42:22;93.07;;;60.22;;
82473;SDS011;72149;53.232;6.556;2023-08-17T20:44:50;138.02;;;88.63;;
82473;SDS011;72149;53.232;6.556;2023-08-17T20:47:18;79.95;;;50.55;;
82473;SDS011;72149;53.232;6.556;2023-08-17T20:49:45;105.20;;;66.60;;
82473;SDS011;72149;53.232;6.556;2023-08-17T20:52:14;40.47;;;24.70;;
82473;SDS011;72149;53.232;6.556;2023-08-17T20:54:42;60.38;;;38.03;;
82473;SDS011;72149;53.232;6.556;2023-08-17T20:57:10;50.50;;;31.38;;
82473;SDS011;72149;53.232;6.556;2023-08-17T20:59:38;31.65;;;20.10;;
82473;SDS011;72149;53.232;6.556;2023-08-17T21:02:05;27.77;;;16.33;;
82473;SDS011;72149;53.232;6.556;2023-08-17T21:04:33;55.05;;;33.95;;
82473;SDS011;72149;53.232;6.556;2023-08-17T21:07:02;80.03;;;48.65;;
82473;SDS011;72149;53.232;6.556;2023-08-17T21:09:32;58.28;;;35.33;;
82473;SDS011;72149;53.232;6.556;2023-08-17T21:12:00;35.53;;;22.52;;
82473;SDS011;72149;53.232;6.556;2023-08-17T21:14:28;68.32;;;40.53;;
82473;SDS011;72149;53.232;6.556;2023-08-17T21:16:56;95.47;;;58.50;;
82473;SDS011;72149;53.232;6.556;2023-08-17T21:19:24;32.67;;;21.52;;
82473;SDS011;72149;53.232;6.556;2023-08-17T21:21:52;32.10;;;19.80;;
82473;SDS011;72149;53.232;6.556;2023-08-17T21:24:19;34.45;;;21.50;;
82473;SDS011;72149;53.232;6.556;2023-08-17T21:26:49;47.33;;;29.02;;
82473;SDS011;72149;53.232;6.556;2023-08-17T21:29:16;105.80;;;63.53;;
82473;SDS011;72149;53.232;6.556;2023-08-17T21:31:44;36.88;;;21.48;;
82473;SDS011;72149;53.232;6.556;2023-08-17T21:34:13;66.07;;;39.92;;
82473;SDS011;72149;53.232;6.556;2023-08-17T21:36:41;88.55;;;52.65;;
82473;SDS011;72149;53.232;6.556;2023-08-17T21:39:10;54.05;;;33.47;;
82473;SDS011;72149;53.232;6.556;2023-08-17T21:41:38;37.10;;;22.85;;
82473;SDS011;72149;53.232;6.556;2023-08-17T21:44:07;27.83;;;17.15;;
82473;SDS011;72149;53.232;6.556;2023-08-17T21:46:35;55.08;;;34.30;;
82473;SDS011;72149;53.232;6.556;2023-08-17T21:49:03;53.25;;;34.13;;
82473;SDS011;72149;53.232;6.556;2023-08-17T21:51:31;69.72;;;43.38;;
82473;SDS011;72149;53.232;6.556;2023-08-17T21:53:59;46.63;;;26.67;;
82473;SDS011;72149;53.232;6.556;2023-08-17T21:56:26;59.90;;;39.85;;
82473;SDS011;72149;53.232;6.556;2023-08-17T21:58:55;62.78;;;37.20;;
82473;SDS011;72149;53.232;6.556;2023-08-17T22:01:24;141.63;;;83.32;;
82473;SDS011;72149;53.232;6.556;2023-08-17T22:03:52;121.90;;;72.55;;
82473;SDS011;72149;53.232;6.556;2023-08-17T22:06:20;81.25;;;48.97;;
82473;SDS011;72149;53.232;6.556;2023-08-17T22:08:48;68.35;;;39.28;;